createdAt,value
2023-03-08T00:02:24.156Z,55.00
2023-03-08T00:04:54.728Z,55.00
2023-03-08T00:07:22.691Z,55.00
2023-03-08T00:09:49.944Z,55.00
2023-03-08T00:12:20.221Z,54.90
2023-03-08T00:14:47.521Z,55.00
2023-03-08T00:17:14.924Z,55.20
2023-03-08T00:19:42.090Z,55.30
2023-03-08T00:22:09.190Z,55.40
2023-03-08T00:24:36.291Z,55.50
2023-03-08T00:27:03.600Z,55.70
2023-03-08T00:29:31.365Z,55.90
2023-03-08T00:31:58.573Z,56.00
2023-03-08T00:34:25.768Z,56.10
2023-03-08T00:36:52.963Z,56.20
2023-03-08T00:39:20.230Z,56.30
2023-03-08T00:41:47.406Z,56.40
2023-03-08T00:44:14.538Z,56.50
2023-03-08T00:46:41.721Z,56.60
2023-03-08T00:49:09.972Z,56.70
2023-03-08T00:51:37.183Z,56.80
2023-03-08T00:54:04.472Z,56.90
2023-03-08T00:56:31.740Z,57.00
2023-03-08T00:58:59.044Z,57.00
2023-03-08T01:01:26.270Z,57.00
2023-03-08T01:03:53.498Z,57.00
2023-03-08T01:06:22.364Z,57.10
2023-03-08T01:08:49.572Z,57.20
2023-03-08T01:11:21.322Z,57.10
2023-03-08T01:13:48.992Z,57.10
2023-03-08T01:16:22.504Z,57.00
2023-03-08T01:18:49.785Z,57.10
2023-03-08T01:21:16.930Z,57.10
2023-03-08T01:23:44.107Z,57.10
2023-03-08T01:26:16.952Z,57.00
2023-03-08T01:28:44.207Z,57.10
2023-03-08T01:31:19.167Z,57.00
2023-03-08T01:33:46.561Z,57.10
2023-03-08T01:36:18.173Z,57.00
2023-03-08T01:38:45.610Z,57.00
2023-03-08T01:41:28.052Z,56.80
2023-03-08T01:43:55.349Z,56.80
2023-03-08T01:46:32.902Z,56.80
2023-03-08T01:49:28.493Z,56.60
2023-03-08T01:52:03.486Z,56.60
2023-03-08T01:54:38.870Z,56.60
2023-03-08T01:57:22.998Z,56.50
2023-03-08T01:59:50.419Z,56.50
2023-03-08T02:02:20.176Z,56.40
2023-03-08T02:04:47.325Z,56.30
2023-03-08T02:07:19.599Z,56.20
2023-03-08T02:09:47.547Z,56.10
2023-03-08T02:12:14.718Z,56.30
2023-03-08T02:14:42.768Z,56.00
2023-03-08T02:17:10.611Z,55.90
2023-03-08T02:19:54.282Z,55.70
2023-03-08T02:22:23.935Z,55.60
2023-03-08T02:24:51.058Z,55.70
2023-03-08T02:27:23.553Z,55.60
2023-03-08T02:29:50.712Z,55.40
2023-03-08T02:32:17.976Z,55.40
2023-03-08T02:34:45.173Z,55.40
2023-03-08T02:37:12.946Z,55.30
2023-03-08T02:39:40.108Z,55.20
2023-03-08T02:42:07.633Z,55.00
2023-03-08T02:44:35.570Z,54.90
2023-03-08T02:47:02.816Z,54.90
2023-03-08T02:49:30.109Z,54.80
2023-03-08T02:51:57.888Z,54.60
2023-03-08T02:54:25.001Z,54.50
2023-03-08T02:56:52.191Z,54.40
2023-03-08T02:59:19.436Z,54.40
2023-03-08T03:01:47.160Z,54.40
2023-03-08T03:04:14.364Z,54.40
2023-03-08T03:06:41.468Z,54.30
2023-03-08T03:09:10.941Z,54.30
2023-03-08T03:11:39.924Z,54.20
2023-03-08T03:14:07.216Z,54.20
2023-03-08T03:16:39.307Z,54.30
2023-03-08T03:19:06.481Z,54.10
2023-03-08T03:21:33.623Z,54.10
2023-03-08T03:24:00.852Z,54.10
2023-03-08T03:26:35.512Z,54.20
2023-03-08T03:29:02.783Z,54.20
2023-03-08T03:31:34.290Z,54.10
2023-03-08T03:34:02.004Z,54.20
2023-03-08T03:36:30.471Z,54.10
2023-03-08T03:38:58.860Z,53.90
2023-03-08T03:41:26.649Z,53.90
2023-03-08T03:44:07.451Z,53.80
2023-03-08T03:46:35.485Z,53.70
2023-03-08T03:49:04.638Z,53.50
2023-03-08T03:51:36.279Z,53.50
2023-03-08T03:54:13.011Z,53.30
2023-03-08T03:56:41.993Z,53.20
2023-03-08T03:59:09.140Z,53.10
2023-03-08T04:01:36.495Z,53.10
2023-03-08T04:04:12.464Z,53.00
2023-03-08T04:06:43.220Z,52.90
2023-03-08T04:09:15.668Z,52.90
2023-03-08T04:11:49.326Z,52.70
2023-03-08T04:14:22.959Z,52.80
2023-03-08T04:16:51.968Z,52.70
2023-03-08T04:19:28.722Z,52.40
2023-03-08T04:21:58.131Z,52.40
2023-03-08T04:24:31.535Z,52.50
2023-03-08T04:27:03.396Z,52.20
2023-03-08T04:29:30.608Z,52.30
2023-03-08T04:32:00.287Z,52.00
2023-03-08T04:34:34.331Z,52.00
2023-03-08T04:37:01.941Z,52.20
2023-03-08T04:39:29.471Z,52.10
2023-03-08T04:41:56.790Z,52.00
2023-03-08T04:44:30.133Z,51.90
2023-03-08T04:46:57.720Z,52.10
2023-03-08T04:49:32.559Z,51.90
2023-03-08T04:52:02.836Z,52.00
2023-03-08T04:54:31.737Z,51.90
2023-03-08T04:57:04.757Z,52.00
2023-03-08T04:59:36.156Z,52.00
2023-03-08T05:02:05.424Z,52.00
2023-03-08T05:04:38.029Z,52.10
2023-03-08T05:07:05.455Z,52.10
2023-03-08T05:09:35.182Z,52.30
2023-03-08T05:12:02.770Z,52.30
2023-03-08T05:14:43.530Z,52.30
2023-03-08T05:17:10.751Z,52.20
2023-03-08T05:19:37.885Z,52.60
2023-03-08T05:22:06.179Z,52.40
2023-03-08T05:24:35.821Z,52.40
2023-03-08T05:27:08.598Z,52.40
2023-03-08T05:29:37.312Z,52.80
2023-03-08T05:32:06.695Z,52.50
2023-03-08T05:34:34.690Z,52.10
2023-03-08T05:37:04.456Z,52.10
2023-03-08T05:39:34.282Z,52.10
2023-03-08T05:42:12.847Z,52.00
2023-03-08T05:44:43.246Z,52.20
2023-03-08T05:47:12.777Z,52.20
2023-03-08T05:49:41.305Z,52.50
2023-03-08T05:52:09.366Z,52.50
2023-03-08T05:54:36.573Z,52.00
2023-03-08T05:57:09.417Z,52.00
2023-03-08T05:59:38.009Z,52.00
2023-03-08T06:02:06.791Z,52.00
2023-03-08T06:04:40.546Z,51.90
2023-03-08T06:07:08.971Z,51.90
2023-03-08T06:09:40.874Z,51.90
2023-03-08T06:12:12.358Z,51.80
2023-03-08T06:14:39.583Z,51.90
2023-03-08T06:17:07.180Z,51.90
2023-03-08T06:19:37.123Z,51.90
2023-03-08T06:22:04.324Z,51.90
2023-03-08T06:24:32.200Z,51.90
2023-03-08T06:27:02.222Z,51.80
2023-03-08T06:29:29.438Z,52.00
2023-03-08T06:31:57.043Z,51.90
2023-03-08T06:34:24.307Z,52.00
2023-03-08T06:36:56.682Z,52.00
2023-03-08T06:39:24.424Z,51.90
2023-03-08T06:41:51.621Z,52.10
2023-03-08T06:44:18.750Z,51.90
2023-03-08T06:46:45.928Z,52.00
2023-03-08T06:49:13.133Z,51.70
2023-03-08T06:51:42.640Z,51.50
2023-03-08T06:54:10.652Z,51.40
2023-03-08T06:56:37.864Z,51.50
2023-03-08T06:59:07.123Z,51.50
2023-03-08T07:01:36.409Z,51.50
2023-03-08T07:04:03.615Z,51.50
2023-03-08T07:06:32.111Z,51.40
2023-03-08T07:08:59.992Z,51.50
2023-03-08T07:11:29.010Z,51.50
2023-03-08T07:13:57.584Z,51.40
2023-03-08T07:16:24.827Z,51.30
2023-03-08T07:18:52.051Z,51.30
2023-03-08T07:21:19.281Z,51.50
2023-03-08T07:23:46.412Z,51.30
2023-03-08T07:26:13.660Z,51.20
2023-03-08T07:28:41.090Z,51.20
2023-03-08T07:31:11.182Z,51.60
2023-03-08T07:33:38.328Z,51.20
2023-03-08T07:36:06.029Z,51.30
2023-03-08T07:38:33.212Z,51.30
2023-03-08T07:41:00.366Z,51.30
2023-03-08T07:43:27.650Z,51.00
2023-03-08T07:46:06.207Z,50.90
2023-03-08T07:48:33.463Z,51.00
2023-03-08T07:51:03.225Z,50.80
2023-03-08T07:53:30.968Z,50.80
2023-03-08T07:55:59.365Z,50.70
2023-03-08T07:58:27.465Z,50.80
2023-03-08T08:00:54.702Z,50.50
2023-03-08T08:03:24.072Z,50.10
2023-03-08T08:05:51.259Z,49.60
2023-03-08T08:08:18.515Z,49.10
2023-03-08T08:10:45.789Z,48.60
2023-03-08T08:13:13.095Z,47.90
2023-03-08T08:15:40.372Z,47.70
2023-03-08T08:18:07.549Z,47.60
2023-03-08T08:20:34.686Z,47.40
2023-03-08T08:23:01.826Z,46.90
2023-03-08T08:25:29.079Z,46.70
2023-03-08T08:27:56.498Z,46.30
2023-03-08T08:30:23.758Z,45.90
2023-03-08T08:32:50.960Z,46.10
2023-03-08T08:35:18.205Z,45.40
2023-03-08T08:37:45.348Z,45.20
2023-03-08T08:40:13.041Z,45.20
2023-03-08T08:42:40.166Z,44.70
2023-03-08T08:45:08.022Z,44.60
2023-03-08T08:47:35.428Z,44.60
2023-03-08T08:50:02.624Z,44.80
2023-03-08T08:52:29.825Z,44.30
2023-03-08T08:54:57.936Z,44.30
2023-03-08T08:57:25.096Z,44.00
2023-03-08T08:59:52.280Z,43.90
2023-03-08T09:02:19.498Z,43.60
2023-03-08T09:04:46.771Z,43.50
2023-03-08T09:07:14.037Z,43.50
2023-03-08T09:09:41.162Z,43.40
2023-03-08T09:12:08.653Z,43.40
2023-03-08T09:14:37.000Z,43.40
2023-03-08T09:17:06.264Z,43.20
2023-03-08T09:19:33.522Z,43.30
2023-03-08T09:22:00.729Z,43.10
2023-03-08T09:24:27.883Z,43.10
2023-03-08T09:26:55.054Z,42.90
2023-03-08T09:29:22.205Z,42.50
2023-03-08T09:31:49.527Z,42.30
2023-03-08T09:34:19.153Z,41.80
2023-03-08T09:36:46.356Z,42.10
2023-03-08T09:39:13.849Z,42.30
2023-03-08T09:41:51.911Z,42.20
2023-03-08T09:44:55.807Z,41.70
2023-03-08T09:47:48.919Z,41.50
2023-03-08T09:50:50.685Z,41.70
2023-03-08T09:53:55.977Z,41.50
2023-03-08T09:56:33.571Z,41.30
2023-03-08T09:59:14.721Z,41.60
2023-03-08T10:02:13.715Z,41.50
2023-03-08T10:05:09.829Z,41.50
2023-03-08T10:07:49.821Z,41.60
2023-03-08T10:10:49.357Z,41.50
2023-03-08T10:13:37.818Z,41.40
2023-03-08T10:16:24.055Z,40.90
2023-03-08T10:19:24.007Z,40.90
2023-03-08T10:21:51.530Z,40.60
2023-03-08T10:24:30.366Z,41.30
2023-03-08T10:27:24.175Z,41.30
2023-03-08T10:29:56.674Z,41.10
2023-03-08T10:32:24.340Z,41.00
2023-03-08T10:34:51.604Z,41.20
2023-03-08T10:37:21.942Z,41.10
2023-03-08T10:39:53.336Z,41.20
2023-03-08T10:42:22.762Z,41.20
2023-03-08T10:45:13.388Z,41.30
2023-03-08T10:47:40.949Z,41.20
2023-03-08T10:50:20.024Z,41.10
2023-03-08T10:52:48.898Z,41.00
2023-03-08T10:55:21.842Z,40.80
2023-03-08T10:57:56.087Z,40.70
2023-03-08T11:00:40.905Z,40.00
2023-03-08T11:03:18.248Z,40.30
2023-03-08T11:06:10.563Z,41.50
2023-03-08T11:09:01.274Z,39.70
2023-03-08T11:11:28.473Z,39.90
2023-03-08T11:13:55.771Z,40.00
2023-03-08T11:16:52.807Z,40.00
2023-03-08T11:19:47.140Z,40.30
2023-03-08T11:22:47.826Z,40.10
2023-03-08T11:25:29.916Z,40.10
2023-03-08T11:28:05.994Z,39.70
2023-03-08T11:31:06.347Z,39.50
2023-03-08T11:34:14.889Z,39.80
2023-03-08T11:37:35.927Z,39.80
2023-03-08T11:40:28.123Z,40.20
2023-03-08T11:43:34.319Z,40.10
2023-03-08T11:46:57.717Z,40.00
2023-03-08T11:50:06.008Z,39.80
2023-03-08T11:52:49.303Z,39.40
2023-03-08T11:55:50.091Z,39.20
2023-03-08T11:58:37.960Z,38.90
2023-03-08T12:01:19.887Z,39.00
2023-03-08T12:03:52.769Z,39.00
2023-03-08T12:06:49.770Z,39.20
2023-03-08T12:09:36.560Z,39.40
2023-03-08T12:12:17.872Z,39.20
2023-03-08T12:15:49.936Z,39.40
2023-03-08T12:19:42.216Z,39.80
2023-03-08T12:22:43.335Z,39.70
2023-03-08T12:25:13.388Z,39.30
2023-03-08T12:27:58.316Z,39.30
2023-03-08T12:31:07.864Z,39.20
2023-03-08T12:33:40.227Z,39.10
2023-03-08T12:36:08.072Z,39.20
2023-03-08T12:38:42.494Z,39.10
2023-03-08T12:41:29.095Z,38.90
2023-03-08T12:44:07.258Z,38.90
2023-03-08T12:47:03.039Z,38.60
2023-03-08T12:49:37.097Z,38.50
2023-03-08T12:52:19.682Z,38.50
2023-03-08T12:55:21.474Z,38.50
2023-03-08T12:57:55.049Z,38.20
2023-03-08T13:00:26.676Z,38.30
2023-03-08T13:03:12.142Z,38.80
2023-03-08T13:05:40.826Z,38.40
2023-03-08T13:08:33.893Z,38.50
2023-03-08T13:11:19.319Z,38.00
2023-03-08T13:13:53.435Z,38.00
2023-03-08T13:16:37.498Z,38.10
2023-03-08T13:19:14.762Z,38.10
2023-03-08T13:22:33.069Z,38.30
2023-03-08T13:25:38.791Z,38.10
2023-03-08T13:28:10.612Z,38.20
2023-03-08T13:30:52.308Z,39.40
2023-03-08T13:33:41.552Z,38.90
2023-03-08T13:36:30.888Z,38.50
2023-03-08T13:39:20.955Z,38.20
2023-03-08T13:41:48.360Z,38.20
2023-03-08T13:44:16.341Z,38.40
2023-03-08T13:46:44.225Z,38.30
2023-03-08T13:49:29.733Z,38.30
2023-03-08T13:51:59.541Z,38.10
2023-03-08T13:54:42.150Z,38.20
2023-03-08T13:57:21.889Z,38.00
2023-03-08T13:59:54.983Z,37.70
2023-03-08T14:02:30.100Z,37.30
2023-03-08T14:04:57.959Z,37.10
2023-03-08T14:07:30.637Z,37.20
2023-03-08T14:09:58.053Z,37.30
2023-03-08T14:12:29.410Z,37.40
2023-03-08T14:15:03.648Z,37.30
2023-03-08T14:17:34.911Z,37.40
2023-03-08T14:20:20.679Z,37.60
2023-03-08T14:22:50.255Z,38.10
2023-03-08T14:25:26.932Z,38.50
2023-03-08T14:27:54.593Z,38.70
2023-03-08T14:30:30.087Z,39.10
2023-03-08T14:33:41.738Z,39.70
2023-03-08T14:36:10.012Z,40.00
2023-03-08T14:38:37.198Z,40.20
2023-03-08T14:41:06.367Z,40.40
2023-03-08T14:43:33.648Z,40.60
2023-03-08T14:46:06.216Z,40.90
2023-03-08T14:48:37.913Z,41.20
2023-03-08T14:51:21.265Z,41.30
2023-03-08T14:54:00.132Z,41.40
2023-03-08T14:56:30.094Z,41.60
2023-03-08T14:59:03.746Z,41.80
2023-03-08T15:01:34.068Z,42.20
2023-03-08T15:04:01.723Z,42.50
2023-03-08T15:06:34.420Z,42.60
2023-03-08T15:09:02.042Z,42.90
2023-03-08T15:11:31.600Z,43.10
2023-03-08T15:13:59.473Z,43.70
2023-03-08T15:16:27.091Z,44.20
2023-03-08T15:18:54.431Z,44.90
2023-03-08T15:21:24.501Z,45.50
2023-03-08T15:23:51.869Z,46.40
2023-03-08T15:26:31.535Z,46.80
2023-03-08T15:28:59.445Z,47.30
2023-03-08T15:31:26.818Z,47.20
2023-03-08T15:33:54.002Z,47.30
2023-03-08T15:36:21.223Z,47.50
2023-03-08T15:38:48.431Z,47.70
2023-03-08T15:41:16.553Z,47.80
2023-03-08T15:43:43.908Z,48.00
2023-03-08T15:46:14.539Z,48.20
2023-03-08T15:48:42.193Z,48.70
2023-03-08T15:51:18.635Z,48.60
2023-03-08T15:53:46.723Z,48.60
2023-03-08T15:56:15.208Z,48.50
2023-03-08T15:58:42.779Z,48.50
2023-03-08T16:01:09.957Z,48.60
2023-03-08T16:03:37.332Z,48.60
2023-03-08T16:06:13.100Z,48.60
2023-03-08T16:08:41.010Z,48.80
2023-03-08T16:11:16.210Z,48.70
2023-03-08T16:13:43.609Z,49.00
2023-03-08T16:16:10.855Z,49.00
2023-03-08T16:18:40.426Z,49.20
2023-03-08T16:21:09.116Z,49.30
2023-03-08T16:23:41.640Z,49.40
2023-03-08T16:26:16.192Z,49.50
2023-03-08T16:28:45.950Z,49.60
2023-03-08T16:31:13.735Z,49.80
2023-03-08T16:33:41.112Z,49.90
2023-03-08T16:36:08.561Z,50.10
2023-03-08T16:38:35.958Z,50.20
2023-03-08T16:41:14.336Z,50.20
2023-03-08T16:43:48.139Z,50.30
2023-03-08T16:46:18.495Z,50.40
2023-03-08T16:48:49.244Z,50.50
2023-03-08T16:51:18.945Z,50.50
2023-03-08T16:53:46.255Z,50.70
2023-03-08T16:56:25.219Z,50.80
2023-03-08T16:58:53.605Z,51.00
2023-03-08T17:01:21.205Z,50.90
2023-03-08T17:03:48.678Z,51.10
2023-03-08T17:06:18.368Z,51.10
2023-03-08T17:08:45.914Z,51.30
2023-03-08T17:11:22.466Z,51.30
2023-03-08T17:13:51.147Z,51.60
2023-03-08T17:16:27.473Z,51.60
2023-03-08T17:18:54.743Z,51.60
2023-03-08T17:21:22.223Z,51.70
2023-03-08T17:23:50.479Z,51.80
2023-03-08T17:26:22.468Z,52.10
2023-03-08T17:28:51.272Z,52.30
2023-03-08T17:31:21.018Z,52.70
2023-03-08T17:33:48.731Z,53.00
2023-03-08T17:36:16.359Z,53.10
2023-03-08T17:38:43.786Z,53.30
2023-03-08T17:41:14.005Z,53.60
2023-03-08T17:43:41.892Z,53.90
2023-03-08T17:46:14.622Z,54.00
2023-03-08T17:48:42.060Z,54.00
2023-03-08T17:51:12.025Z,54.00
2023-03-08T17:53:39.558Z,54.00
2023-03-08T17:56:15.151Z,53.90
2023-03-08T17:58:42.708Z,54.00
2023-03-08T18:01:21.168Z,53.90
2023-03-08T18:03:48.792Z,54.00
2023-03-08T18:06:30.938Z,53.80
2023-03-08T18:08:58.819Z,53.90
2023-03-08T18:11:26.068Z,53.70
2023-03-08T18:13:53.592Z,53.70
2023-03-08T18:16:21.927Z,53.60
2023-03-08T18:18:49.513Z,53.60
2023-03-08T18:21:21.816Z,53.50
2023-03-08T18:23:49.001Z,53.70
2023-03-08T18:26:17.296Z,53.70
2023-03-08T18:28:44.567Z,53.70
2023-03-08T18:31:18.272Z,53.80
2023-03-08T18:33:48.564Z,53.80
2023-03-08T18:36:15.889Z,54.00
2023-03-08T18:38:43.067Z,54.20
2023-03-08T18:41:22.313Z,54.50
2023-03-08T18:43:51.206Z,55.00
2023-03-08T18:46:18.721Z,55.00
2023-03-08T18:48:50.746Z,55.10
2023-03-08T18:51:18.090Z,55.40
2023-03-08T18:53:45.272Z,55.50
2023-03-08T18:56:12.625Z,55.60
2023-03-08T18:58:39.874Z,55.60
2023-03-08T19:01:16.448Z,55.70
2023-03-08T19:03:44.052Z,55.80
2023-03-08T19:06:11.967Z,55.60
2023-03-08T19:08:39.243Z,55.60
2023-03-08T19:11:26.219Z,55.60
2023-03-08T19:13:53.608Z,55.60
2023-03-08T19:16:34.033Z,55.40
2023-03-08T19:19:07.326Z,55.50
2023-03-08T19:21:43.192Z,55.60
2023-03-08T19:24:14.746Z,55.60
2023-03-08T19:26:43.253Z,55.60
2023-03-08T19:29:32.538Z,55.50
2023-03-08T19:32:05.671Z,55.70
2023-03-08T19:34:38.243Z,55.70
2023-03-08T19:37:06.442Z,55.70
2023-03-08T19:39:36.448Z,55.80
2023-03-08T19:42:06.686Z,55.80
2023-03-08T19:44:34.059Z,55.90
2023-03-08T19:47:01.534Z,56.00
2023-03-08T19:49:30.554Z,56.00
2023-03-08T19:51:59.363Z,56.00
2023-03-08T19:54:30.109Z,56.00
2023-03-08T19:56:57.775Z,56.10
2023-03-08T19:59:25.351Z,56.10
2023-03-08T20:01:53.785Z,56.10
2023-03-08T20:04:21.942Z,56.10
2023-03-08T20:06:49.718Z,56.20
2023-03-08T20:09:21.728Z,56.20
2023-03-08T20:11:57.443Z,56.30
2023-03-08T20:14:27.191Z,56.60
2023-03-08T20:16:55.535Z,57.00
2023-03-08T20:19:22.839Z,57.00
2023-03-08T20:21:50.074Z,57.20
2023-03-08T20:24:18.876Z,57.60
2023-03-08T20:26:46.308Z,57.80
2023-03-08T20:29:13.944Z,58.00
2023-03-08T20:31:41.949Z,58.10
2023-03-08T20:34:09.558Z,58.20
2023-03-08T20:36:37.463Z,58.20
2023-03-08T20:39:04.791Z,58.40
2023-03-08T20:41:32.165Z,58.40
2023-03-08T20:43:59.444Z,58.40
2023-03-08T20:46:31.156Z,58.40
2023-03-08T20:48:58.734Z,58.60
2023-03-08T20:51:26.091Z,58.50
2023-03-08T20:53:54.470Z,58.50
2023-03-08T20:56:23.125Z,58.40
2023-03-08T20:58:50.328Z,58.30
2023-03-08T21:01:20.875Z,58.20
2023-03-08T21:03:48.880Z,58.10
2023-03-08T21:06:19.344Z,58.00
2023-03-08T21:08:47.289Z,58.00
2023-03-08T21:11:14.945Z,57.90
2023-03-08T21:13:42.143Z,57.80
2023-03-08T21:16:12.842Z,57.80
2023-03-08T21:18:45.736Z,57.80
2023-03-08T21:21:36.686Z,57.80
2023-03-08T21:24:13.671Z,57.80
2023-03-08T21:26:40.930Z,57.90
2023-03-08T21:29:11.912Z,57.80
2023-03-08T21:31:45.708Z,57.80
2023-03-08T21:34:13.273Z,57.80
2023-03-08T21:36:40.805Z,57.70
2023-03-08T21:39:08.358Z,57.70
2023-03-08T21:41:39.350Z,57.70
2023-03-08T21:44:09.510Z,57.60
2023-03-08T21:46:37.803Z,57.60
2023-03-08T21:49:05.427Z,57.60
2023-03-08T21:51:33.237Z,57.60
2023-03-08T21:54:00.704Z,57.70
2023-03-08T21:56:27.938Z,57.70
2023-03-08T21:58:55.741Z,57.70
2023-03-08T22:01:28.604Z,57.80
2023-03-08T22:03:56.259Z,57.90
2023-03-08T22:06:24.019Z,57.80
2023-03-08T22:08:51.329Z,57.90
2023-03-08T22:11:18.991Z,57.90
2023-03-08T22:13:54.945Z,58.00
2023-03-08T22:16:22.303Z,58.20
2023-03-08T22:18:55.968Z,58.10
2023-03-08T22:21:23.364Z,58.30
2023-03-08T22:23:55.502Z,58.40
2023-03-08T22:26:23.287Z,58.70
2023-03-08T22:28:50.487Z,58.70
2023-03-08T22:31:20.895Z,58.80
2023-03-08T22:33:48.201Z,58.80
2023-03-08T22:36:16.943Z,58.80
2023-03-08T22:38:44.169Z,58.90
2023-03-08T22:41:17.476Z,58.90
2023-03-08T22:43:44.798Z,59.00
2023-03-08T22:46:19.002Z,59.00
2023-03-08T22:48:46.522Z,59.20
2023-03-08T22:51:14.111Z,58.50
2023-03-08T22:53:41.453Z,59.20
2023-03-08T22:56:22.707Z,59.20
2023-03-08T22:58:50.168Z,59.10
2023-03-08T23:01:20.476Z,59.00
2023-03-08T23:03:49.579Z,59.10
2023-03-08T23:06:17.975Z,59.10
2023-03-08T23:08:45.859Z,59.30
2023-03-08T23:11:13.312Z,59.40
2023-03-08T23:13:41.344Z,59.60
2023-03-08T23:16:11.071Z,59.90
2023-03-08T23:18:38.405Z,60.10
2023-03-08T23:21:07.267Z,60.30
2023-03-08T23:23:37.254Z,60.50
2023-03-08T23:26:05.633Z,60.60
2023-03-08T23:28:35.598Z,61.00
2023-03-08T23:31:21.235Z,61.20
2023-03-08T23:33:49.322Z,61.60
2023-03-08T23:36:18.342Z,61.80
2023-03-08T23:38:45.604Z,62.00
2023-03-08T23:41:13.627Z,62.20
2023-03-08T23:43:43.635Z,62.40
2023-03-08T23:46:16.610Z,62.60
2023-03-08T23:48:44.653Z,63.10
2023-03-08T23:51:19.682Z,63.40
2023-03-08T23:53:51.725Z,63.70
2023-03-08T23:56:26.767Z,63.90
2023-03-08T23:58:56.011Z,64.00
